Latest Weather Observations for Brisbane

IDQ60801

Issued at 2:02 pm EST Friday 29 April 2016 (issued every 30 minutes, with the page automatically refreshed every 10 minutes)

About weather observations | Map of weather stations | Latest weather observations for QLD | Other Formats
Station Details ID: 040913 Name: BRISBANE Lat: -27.48 Lon: 153.04 Height: 8.13 m
Data from the previous 72 hours. | See also: Recent months at Brisbane
Date/Time
EST
Temp
°C
App
Temp
°C
Dew
Point
Rel
Hum
%
Delta-T
°C
Wind Press
QNH
hPa
Press
MSL
hPa
Rain
since 9 am
mm
Dir
 
Spd
km/h
Gust
km/h
Spd
kts
Gust
kts
29/02:00pm 25.3 26.8 18.0 64 4.6 E 7 11 4 6 1020.4 1020.4 0.2
29/01:30pm 25.5 27.2 18.4 65 4.5 E 7 11 4 6 1020.5 1020.5 0.2
29/01:00pm 25.0 26.2 18.2 66 4.3 E 9 13 5 7 1020.7 1020.7 0.2
29/12:30pm 24.6 26.1 19.0 71 3.6 E 9 15 5 8 1021.1 1021.1 0.2
29/12:00pm 25.2 27.6 19.6 71 3.6 ESE 6 13 3 7 1021.6 1021.6 0.2
29/11:30am 24.3 26.5 19.1 73 3.3 ESE 6 9 3 5 1022.3 1022.3 0.2
29/11:00am 23.4 25.9 19.1 77 2.7 SSE 4 6 2 3 1023.1 1023.1 0.2
29/10:30am 21.9 24.4 19.1 84 1.8 SW 4 6 2 3 1023.8 1023.8 0.2
29/10:00am 20.5 22.6 18.1 86 1.5 SSW 4 7 2 4 1024.5 1024.5 0.2
29/09:30am 20.3 22.3 17.9 86 1.5 SW 4 6 2 3 1024.3 1024.3 0.2
29/09:00am 19.5 21.5 16.9 85 1.6 SSW 2 6 1 3 1024.5 1024.5 0.6
29/08:30am 19.1 20.3 16.9 87 1.3 WSW 6 9 3 5 1024.2 1024.2 0.6
29/08:00am 18.5 19.9 16.5 88 1.2 WSW 4 9 2 5 1024.3 1024.3 0.6
29/07:30am 18.5 19.7 15.9 85 1.5 WNW 4 7 2 4 1024.2 1024.2 0.4
29/07:00am 18.4 20.1 16.2 87 1.3 WSW 2 6 1 3 1023.6 1023.6 0.4
29/06:30am 18.3 19.6 16.1 87 1.3 SSW 4 9 2 5 1023.3 1023.3 0.4
29/06:00am 18.1 19.4 16.1 88 1.2 SW 4 7 2 4 1023.2 1023.2 0.4
29/05:30am 17.9 19.2 16.1 89 1.1 WSW 4 9 2 5 1022.9 1022.9 0.4
29/05:00am 17.4 18.5 15.6 89 1.1 SW 4 7 2 4 1022.4 1022.4 0.4
29/04:30am 17.4 18.9 15.7 90 1.0 WSW 2 6 1 3 1022.3 1022.3 0.4
29/04:00am 17.5 19.4 15.8 90 1.0 CALM 0 2 0 1 1022.3 1022.3 0.4
29/03:30am 17.7 19.4 16.2 91 0.9 WSW 2 6 1 3 1022.2 1022.2 0.4
29/03:00am 18.1 19.6 16.6 91 0.9 WSW 4 7 2 4 1022.3 1022.3 0.4
29/02:30am 18.3 20.2 16.8 91 0.9 WSW 2 4 1 2 1022.6 1022.6 0.4
29/02:00am 18.3 19.9 16.8 91 0.9 WSW 4 7 2 4 1022.7 1022.7 0.4
29/01:30am 18.1 19.6 16.6 91 0.9 WSW 4 6 2 3 1023.0 1023.0 0.4
29/01:00am 18.3 19.9 17.0 92 0.8 W 4 7 2 4 1023.1 1023.1 0.4
29/12:30am 18.2 20.2 17.0 93 0.7 WSW 2 4 1 2 1023.1 1023.1 0.4
29/12:00am 17.6 19.6 16.1 91 0.9 CALM 0 2 0 1 1023.2 1023.2 0.4
 
Date/Time
EST
Temp
°C
App
Temp
°C
Dew
Point
Rel
Hum
%
Delta-T
°C
Wind Press
QNH
hPa
Press
MSL
hPa
Rain
since 9 am
mm
Dir
 
Spd
km/h
Gust
km/h
Spd
kts
Gust
kts
28/11:30pm 17.9 20.1 16.4 91 0.9 CALM 0 0 0 0 1023.4 1023.4 0.4
28/11:00pm 17.8 19.8 16.1 90 1.0 CALM 0 0 0 0 1023.8 1023.8 0.4
28/10:30pm 18.0 20.1 16.2 89 1.1 CALM 0 0 0 0 1023.7 1023.7 0.4
28/10:00pm 18.1 20.1 16.1 88 1.2 CALM 0 0 0 0 1023.8 1023.8 0.4
28/09:30pm 18.3 20.4 16.3 88 1.2 CALM 0 0 0 0 1023.9 1023.9 0.4
28/09:00pm 18.6 20.8 16.4 87 1.3 CALM 0 0 0 0 1023.9 1023.9 0.4
28/08:30pm 18.9 21.1 16.5 86 1.4 CALM 0 0 0 0 1023.6 1023.6 0.4
28/08:00pm 19.1 21.1 16.0 82 1.8 CALM 0 0 0 0 1023.4 1023.4 0.4
28/07:30pm 19.9 22.0 16.3 80 2.2 CALM 0 0 0 0 1023.3 1023.3 0.4
28/07:00pm 20.6 22.8 16.6 78 2.4 CALM 0 0 0 0 1023.2 1023.2 0.4
28/06:30pm 21.4 23.6 16.4 73 3.0 CALM 0 2 0 1 1022.8 1022.8 0.4
28/06:00pm 22.6 24.1 16.6 69 3.6 E 4 6 2 3 1022.5 1022.5 0.4
28/05:30pm 23.4 24.0 16.9 67 4.0 E 9 15 5 8 1022.2 1022.2 0.4
28/05:00pm 23.8 24.2 16.3 63 4.6 E 9 15 5 8 1022.0 1022.0 0.4
28/04:30pm 24.3 25.0 17.1 64 4.5 E 9 19 5 10 1021.8 1021.8 0.4
28/04:00pm 24.2 25.4 17.4 65 4.2 E 7 15 4 8 1021.8 1021.8 0.4
28/03:30pm 24.3 25.3 17.8 67 4.1 E 9 15 5 8 1021.6 1021.6 0.4
28/03:00pm 23.9 25.6 18.1 70 3.6 E 6 11 3 6 1021.6 1021.6 0.4
28/02:30pm 26.2 26.0 16.7 56 5.9 ENE 13 24 7 13 1021.4 1021.4 0.0
28/02:00pm 26.4 26.0 16.1 53 6.3 ENE 13 22 7 12 1021.4 1021.4 0.0
28/01:30pm 27.4 26.6 16.1 50 7.0 ENE 15 22 8 12 1021.4 1021.4 0.0
28/01:00pm 27.2 26.6 15.6 49 7.1 ENE 13 20 7 11 1021.6 1021.6 0.0
28/12:30pm 27.7 28.5 17.3 53 6.5 ENE 9 17 5 9 1021.9 1021.9 0.0
28/12:00pm 26.7 26.6 16.9 55 6.1 E 13 17 7 9 1022.4 1022.4 0.0
28/11:30am 26.4 26.4 17.2 57 5.7 ENE 13 20 7 11 1022.7 1022.7 0.0
28/11:00am 26.0 25.7 17.4 59 5.4 ENE 15 24 8 13 1023.2 1023.2 0.0
28/10:30am 26.7 28.2 18.8 62 5.1 ENE 9 19 5 10 1023.4 1023.4 0.0
28/10:00am 24.3 26.1 18.2 68 3.8 N 6 20 3 11 1023.8 1023.8 0.0
28/09:30am 23.8 25.5 18.0 70 3.6 W 6 11 3 6 1023.7 1023.7 0.0
28/09:00am 22.6 24.2 18.2 76 2.7 W 7 11 4 6 1024.0 1024.0 1.4
28/08:30am 21.8 23.3 17.6 77 2.6 SW 6 7 3 4 1023.9 1023.9 1.4
28/08:00am 20.4 21.7 17.0 81 2.1 SW 6 11 3 6 1023.6 1023.6 1.4
28/07:30am 19.2 20.9 17.2 88 1.2 SW 4 9 2 5 1023.5 1023.5 1.4
28/07:00am 18.3 20.2 16.6 90 1.0 SW 2 6 1 3 1023.1 1023.1 1.4
28/06:30am 17.9 19.4 16.6 92 0.8 SW 4 7 2 4 1022.8 1022.8 1.4
28/06:00am 17.8 19.7 16.7 93 0.7 S 2 6 1 3 1022.8 1022.8 1.4
28/05:30am 17.5 19.2 16.2 92 0.8 SW 2 4 1 2 1022.8 1022.8 1.4
28/05:00am 17.6 19.3 16.3 92 0.8 WSW 2 6 1 3 1022.6 1022.6 1.0
28/04:30am 17.4 18.7 16.1 92 0.8 WSW 4 7 2 4 1022.4 1022.4 1.0
28/04:00am 17.4 18.7 16.1 92 0.8 WSW 4 7 2 4 1022.4 1022.4 1.0
28/03:30am 17.5 19.0 15.8 90 1.0 SW 2 6 1 3 1022.2 1022.2 1.0
28/03:00am 17.8 19.1 16.1 90 1.0 WSW 4 7 2 4 1022.4 1022.4 1.0
28/02:30am 18.0 19.4 16.3 90 1.0 SW 4 9 2 5 1022.5 1022.5 1.0
28/02:00am 18.0 19.1 16.7 92 0.8 WSW 6 9 3 5 1022.8 1022.8 0.8
28/01:30am 17.9 19.3 16.4 91 0.9 WSW 4 7 2 4 1022.8 1022.8 0.8
28/01:00am 17.9 19.6 16.1 89 1.1 SW 2 6 1 3 1023.0 1023.0 0.8
28/12:30am 18.2 19.6 16.5 90 1.0 SW 4 7 2 4 1023.0 1023.0 0.8
28/12:00am 18.4 19.9 16.7 90 1.0 SW 4 6 2 3 1023.2 1023.2 0.8
 
Date/Time
EST
Temp
°C
App
Temp
°C
Dew
Point
Rel
Hum
%
Delta-T
°C
Wind Press
QNH
hPa
Press
MSL
hPa
Rain
since 9 am
mm
Dir
 
Spd
km/h
Gust
km/h
Spd
kts
Gust
kts
27/11:30pm 18.4 19.9 16.7 90 1.0 WSW 4 9 2 5 1023.3 1023.3 0.8
27/11:00pm 18.5 20.4 16.7 89 1.1 SW 2 6 1 3 1023.3 1023.3 0.8
27/10:30pm 18.6 20.5 16.8 89 1.1 WSW 2 6 1 3 1023.4 1023.4 0.8
27/10:00pm 19.0 20.7 17.1 89 1.1 SW 4 7 2 4 1023.5 1023.5 0.8
27/09:30pm 19.2 21.0 17.3 89 1.2 SW 4 7 2 4 1023.5 1023.5 0.8
27/09:00pm 19.5 21.3 17.5 88 1.2 SW 4 6 2 3 1023.7 1023.7 0.8
27/08:30pm 19.7 21.6 17.7 88 1.2 SW 4 7 2 4 1023.6 1023.6 0.8
27/08:00pm 19.9 22.0 18.0 89 1.2 SW 4 6 2 3 1023.5 1023.5 0.8
27/07:30pm 20.1 22.5 17.9 87 1.4 S 2 6 1 3 1023.3 1023.3 0.8
27/07:00pm 20.3 22.2 17.7 85 1.6 WSW 4 7 2 4 1023.3 1023.3 0.0
27/06:30pm 20.3 21.8 17.7 85 1.6 SSW 6 11 3 6 1023.0 1023.0 0.0
27/06:00pm 20.2 21.6 17.4 84 1.7 SSE 6 11 3 6 1022.7 1022.7 0.0
27/05:30pm 20.7 22.6 17.7 83 1.8 S 4 9 2 5 1022.4 1022.4 0.0
27/05:00pm 21.4 21.8 17.2 77 2.6 SE 11 22 6 12 1022.4 1022.4 0.0
27/04:30pm 23.2 23.1 16.0 64 4.4 ESE 11 24 6 13 1021.9 1021.9 0.0
27/04:00pm 23.6 23.5 16.1 62 4.5 SE 11 19 6 10 1021.5 1021.5 0.0
27/03:30pm 23.9 25.0 17.2 66 4.1 SSE 7 17 4 9 1021.5 1021.5 0.0
27/03:00pm 24.3 25.0 17.1 64 4.4 ESE 9 17 5 9 1021.3 1021.3 0.0
27/02:30pm 23.6 24.2 17.6 69 3.7 SE 11 22 6 12 1021.6 1021.6 0.0
27/02:00pm 22.0 21.2 17.2 74 2.9 SE 17 32 9 17 1021.8 1021.8 0.0
27/01:30pm 23.4 23.7 17.8 71 3.5 ESE 13 20 7 11 1021.8 1021.8 0.0
27/01:00pm 21.9 22.1 17.7 77 2.6 SE 13 20 7 11 1022.4 1022.4 0.0
27/12:30pm 24.8 23.5 15.7 57 5.5 SE 17 28 9 15 1022.3 1022.3 0.0
27/12:00pm 25.3 24.7 15.6 55 5.9 SE 13 20 7 11 1022.6 1022.6 0.0
27/11:30am 25.3 24.1 15.0 53 6.2 SE 15 24 8 13 1022.9 1022.9 0.0
27/11:00am 25.5 24.6 14.9 52 6.3 ESE 13 28 7 15 1023.1 1023.1 0.0
27/10:30am 26.0 25.5 14.8 50 6.7 ESE 11 22 6 12 1023.6 1023.6 0.0
27/10:00am 24.8 23.2 14.0 51 6.3 SE 15 26 8 14 1023.9 1023.9 0.0
27/09:30am 25.1 24.6 14.9 53 6.1 SE 11 22 6 12 1023.9 1023.9 0.0
27/09:00am 24.2 24.2 15.1 56 5.4 SE 9 19 5 10 1024.2 1024.2 0.0
27/08:30am 21.3 21.9 15.2 68 3.6 SW 6 9 3 5 1024.4 1024.4 0.0
27/08:00am 19.9 20.8 15.1 74 2.8 SW 4 9 2 5 1024.4 1024.4 0.0
27/07:30am 19.1 20.0 15.0 77 2.4 SW 4 7 2 4 1024.1 1024.1 0.0
27/07:00am 18.5 19.7 14.8 79 2.1 SW 2 6 1 3 1023.7 1023.7 0.0
27/06:30am 18.3 19.0 14.6 79 2.1 WSW 4 9 2 5 1023.3 1023.3 0.0
27/06:00am 18.2 18.9 14.5 79 2.1 SW 4 9 2 5 1023.1 1023.1 0.0
27/05:30am 18.3 19.0 14.6 79 2.1 SW 4 7 2 4 1022.9 1022.9 0.0
27/05:00am 18.4 19.2 14.9 80 2.0 WSW 4 7 2 4 1022.9 1022.9 0.0
27/04:30am 18.2 18.7 14.9 81 1.9 W 6 7 3 4 1022.7 1022.7 0.0
27/04:00am 18.2 19.0 14.9 81 1.9 WSW 4 7 2 4 1022.6 1022.6 0.0
27/03:30am 18.1 19.0 15.2 83 1.7 WSW 4 6 2 3 1022.6 1022.6 0.0
27/03:00am 17.7 18.5 14.8 83 1.7 WSW 4 6 2 3 1022.6 1022.6 0.0
27/02:30am 18.2 19.0 14.7 80 2.0 WSW 4 11 2 6 1022.9 1022.9 0.0
27/02:00am 18.6 19.5 15.1 80 2.0 WSW 4 7 2 4 1023.2 1023.2 0.0
27/01:30am 18.5 19.1 15.4 82 1.8 W 6 9 3 5 1023.4 1023.4 0.0
27/01:00am 18.2 19.1 15.1 82 1.8 W 4 7 2 4 1023.8 1023.8 0.0
27/12:30am 18.6 19.6 15.3 81 1.9 WSW 4 6 2 3 1023.8 1023.8 0.0
27/12:00am 19.1 20.5 15.4 79 2.2 WSW 2 6 1 3 1023.9 1023.9 0.0
 
Date/Time
EST
Temp
°C
App
Temp
°C
Dew
Point
Rel
Hum
%
Delta-T
°C
Wind Press
QNH
hPa
Press
MSL
hPa
Rain
since 9 am
mm
Dir
 
Spd
km/h
Gust
km/h
Spd
kts
Gust
kts
26/11:30pm 19.5 20.8 15.2 76 2.5 SW 2 7 1 4 1024.1 1024.1 0.0
26/11:00pm 19.8 20.8 15.4 76 2.6 SSW 4 9 2 5 1024.2 1024.2 0.0
26/10:30pm 19.6 20.7 15.5 77 2.4 S 4 9 2 5 1024.4 1024.4 0.0
26/10:00pm 19.4 20.3 15.1 76 2.5 SSW 4 9 2 5 1024.4 1024.4 0.0
26/09:30pm 19.6 20.5 15.0 75 2.7 S 4 7 2 4 1024.8 1024.8 0.0
26/09:00pm 19.9 20.5 15.3 75 2.7 SSE 6 9 3 5 1024.8 1024.8 0.0
26/08:30pm 20.2 20.9 15.6 75 2.7 S 6 13 3 7 1024.6 1024.6 0.0
26/08:00pm 20.7 21.0 15.9 74 2.9 SSE 9 20 5 11 1024.6 1024.6 0.0
26/07:30pm 21.0 21.7 16.2 74 2.9 SSE 7 15 4 8 1024.7 1024.7 0.0
26/07:00pm 21.2 21.9 16.2 73 3.0 SSE 7 15 4 8 1024.4 1024.4 0.0
26/06:30pm 22.0 21.6 16.1 69 3.6 SE 13 24 7 13 1024.2 1024.2 0.0
26/06:00pm 22.1 22.5 16.4 70 3.4 SE 9 20 5 11 1024.0 1024.0 0.0
26/05:30pm 22.2 22.9 16.2 69 3.6 SE 7 17 4 9 1023.8 1023.8 0.0
26/05:00pm 22.7 22.2 15.8 65 4.1 SE 13 22 7 12 1023.6 1023.6 0.0
26/04:30pm 23.5 23.3 14.8 58 5.2 SE 9 19 5 10 1023.3 1023.3 0.0
26/04:00pm 23.9 22.8 14.3 55 5.6 ESE 13 28 7 15 1023.1 1023.1 0.0
26/03:30pm 25.1 23.4 13.6 49 6.7 SE 15 28 8 15 1022.8 1022.8 0.0
26/03:00pm 25.2 24.4 15.2 54 6.0 ESE 13 24 7 13 1022.7 1022.7 0.0
26/02:30pm 24.6 23.0 15.0 55 5.7 ESE 17 35 9 19 1022.8 1022.8 0.0

Other Formats:

Comma delimited format used in spreadsheet applications
http://www.bom.gov.au/fwo/IDQ60801/IDQ60801.94576.axf

JavaScript Object Notation format (JSON) in row-major order
http://www.bom.gov.au/fwo/IDQ60801/IDQ60801.94576.json